createdAt,value
2022-08-17T00:00:34.437Z,18.31
2022-08-17T00:03:18.367Z,18.38
2022-08-17T00:05:56.665Z,18.31
2022-08-17T00:08:31.072Z,18.25
2022-08-17T00:10:59.201Z,18.31
2022-08-17T00:13:36.919Z,18.31
2022-08-17T00:16:14.532Z,18.25
2022-08-17T00:19:01.925Z,18.31
2022-08-17T00:21:49.179Z,18.19
2022-08-17T00:24:18.757Z,18.00
2022-08-17T00:26:47.274Z,18.19
2022-08-17T00:29:19.415Z,18.06
2022-08-17T00:31:48.397Z,18.06
2022-08-17T00:34:15.877Z,18.13
2022-08-17T00:36:43.128Z,18.19
2022-08-17T00:39:10.311Z,18.06
2022-08-17T00:41:37.727Z,18.13
2022-08-17T00:44:12.113Z,18.31
2022-08-17T00:46:42.381Z,18.13
2022-08-17T00:49:12.254Z,18.06
2022-08-17T00:51:46.650Z,18.13
2022-08-17T00:54:23.144Z,17.63
2022-08-17T00:56:57.461Z,17.94
2022-08-17T00:59:32.805Z,17.88
2022-08-17T01:02:00.955Z,17.94
2022-08-17T01:04:30.505Z,17.88
2022-08-17T01:06:58.680Z,18.00
2022-08-17T01:09:26.599Z,18.00
2022-08-17T01:11:54.169Z,18.00
2022-08-17T01:14:26.910Z,17.94
2022-08-17T01:16:56.568Z,18.00
2022-08-17T01:19:29.289Z,17.94
2022-08-17T01:22:11.794Z,17.94
2022-08-17T01:24:44.206Z,17.94
2022-08-17T01:27:14.926Z,17.81
2022-08-17T01:29:52.036Z,17.81
2022-08-17T01:32:20.024Z,17.69
2022-08-17T01:34:50.230Z,17.75
2022-08-17T01:37:21.275Z,17.75
2022-08-17T01:39:54.971Z,17.63
2022-08-17T01:42:52.563Z,17.50
2022-08-17T01:45:25.860Z,17.56
2022-08-17T01:47:54.992Z,17.56
2022-08-17T01:50:30.744Z,17.56
2022-08-17T01:53:09.340Z,17.56
2022-08-17T01:55:48.176Z,17.69
2022-08-17T01:58:15.837Z,17.50
2022-08-17T02:00:59.609Z,17.56
2022-08-17T02:03:29.992Z,17.63
2022-08-17T02:05:57.987Z,17.50
2022-08-17T02:08:37.105Z,17.50
2022-08-17T02:11:15.859Z,17.56
2022-08-17T02:13:45.348Z,17.69
2022-08-17T02:16:13.391Z,17.56
2022-08-17T02:18:41.498Z,17.31
2022-08-17T02:21:10.214Z,17.50
2022-08-17T02:23:42.444Z,17.75
2022-08-17T02:26:09.783Z,17.50
2022-08-17T02:28:53.704Z,17.50
2022-08-17T02:31:21.401Z,17.50
2022-08-17T02:34:04.005Z,17.50
2022-08-17T02:36:33.862Z,17.44
2022-08-17T02:39:07.621Z,17.38
2022-08-17T02:41:34.909Z,17.38
2022-08-17T02:44:02.431Z,17.44
2022-08-17T02:46:31.125Z,17.50
2022-08-17T02:48:59.607Z,17.31
2022-08-17T02:51:27.786Z,17.44
2022-08-17T02:54:05.344Z,17.50
2022-08-17T02:56:42.825Z,17.44
2022-08-17T02:59:10.089Z,17.44
2022-08-17T03:01:37.497Z,17.38
2022-08-17T03:04:05.149Z,17.25
2022-08-17T03:06:32.550Z,17.13
2022-08-17T03:08:59.829Z,17.31
2022-08-17T03:11:27.265Z,17.25
2022-08-17T03:13:54.775Z,17.19
2022-08-17T03:16:22.089Z,17.25
2022-08-17T03:18:49.371Z,17.19
2022-08-17T03:21:16.755Z,17.25
2022-08-17T03:23:44.006Z,17.25
2022-08-17T03:26:15.592Z,17.25
2022-08-17T03:28:43.604Z,17.06
2022-08-17T03:31:11.017Z,17.06
2022-08-17T03:33:38.329Z,17.31
2022-08-17T03:36:06.991Z,17.38
2022-08-17T03:38:38.883Z,17.25
2022-08-17T03:41:07.494Z,17.31
2022-08-17T03:43:34.897Z,17.31
2022-08-17T03:46:28.979Z,17.25
2022-08-17T03:49:26.430Z,17.38
2022-08-17T03:52:16.442Z,17.50
2022-08-17T03:55:14.696Z,17.44
2022-08-17T03:57:42.074Z,17.38
2022-08-17T04:00:10.018Z,17.31
2022-08-17T04:02:37.350Z,17.31
2022-08-17T04:05:05.054Z,17.50
2022-08-17T04:07:32.403Z,17.44
2022-08-17T04:10:00.163Z,17.25
2022-08-17T04:12:31.173Z,17.19
2022-08-17T04:14:59.142Z,17.25
2022-08-17T04:17:28.993Z,17.38
2022-08-17T04:19:56.961Z,17.31
2022-08-17T04:22:31.130Z,17.19
2022-08-17T04:25:05.015Z,17.31
2022-08-17T04:27:32.443Z,17.19
2022-08-17T04:29:59.809Z,17.31
2022-08-17T04:32:58.586Z,17.38
2022-08-17T04:35:21.732Z,17.50
2022-08-17T04:37:49.284Z,17.50
2022-08-17T04:40:37.508Z,17.38
2022-08-17T04:43:14.609Z,17.38
2022-08-17T04:45:51.312Z,17.44
2022-08-17T04:48:32.208Z,17.44
2022-08-17T04:51:11.002Z,17.81
2022-08-17T04:53:40.850Z,17.75
2022-08-17T04:56:11.719Z,18.06
2022-08-17T04:58:50.396Z,17.94
2022-08-17T05:01:23.793Z,17.94
2022-08-17T05:03:53.318Z,17.94
2022-08-17T05:06:20.998Z,18.19
2022-08-17T05:08:48.242Z,18.13
2022-08-17T05:11:15.991Z,18.19
2022-08-17T05:13:43.628Z,17.94
2022-08-17T05:16:11.880Z,18.06
2022-08-17T05:18:39.289Z,17.94
2022-08-17T05:21:07.809Z,17.69
2022-08-17T05:23:43.111Z,17.88
2022-08-17T05:26:25.452Z,17.81
2022-08-17T05:28:55.533Z,18.25
2022-08-17T05:31:25.423Z,18.63
2022-08-17T05:33:53.401Z,18.38
2022-08-17T05:36:42.300Z,18.88
2022-08-17T05:39:08.536Z,19.25
2022-08-17T05:41:42.958Z,19.31
2022-08-17T05:44:10.222Z,19.44
2022-08-17T05:46:44.038Z,19.06
2022-08-17T05:49:15.696Z,19.31
2022-08-17T05:52:13.872Z,19.31
2022-08-17T05:54:55.669Z,19.56
2022-08-17T05:57:54.075Z,19.38
2022-08-17T06:00:30.240Z,19.88
2022-08-17T06:03:41.799Z,20.06
2022-08-17T06:06:41.048Z,19.44
2022-08-17T06:09:11.013Z,20.06
2022-08-17T06:11:53.559Z,20.19
2022-08-17T06:14:52.338Z,20.56
2022-08-17T06:17:24.073Z,20.56
2022-08-17T06:19:59.839Z,20.88
2022-08-17T06:22:33.973Z,20.50
2022-08-17T06:25:10.229Z,20.81
2022-08-17T06:27:53.847Z,21.00
2022-08-17T06:30:36.739Z,21.13
2022-08-17T06:33:37.785Z,21.25
2022-08-17T06:36:29.430Z,21.56
2022-08-17T06:39:33.011Z,21.75
2022-08-17T06:42:54.882Z,21.56
2022-08-17T06:45:22.828Z,21.63
2022-08-17T06:48:14.159Z,21.94
2022-08-17T06:53:48.946Z,22.19
2022-08-17T06:56:54.320Z,22.25
2022-08-17T06:59:55.025Z,22.44
2022-08-17T07:02:53.291Z,23.19
2022-08-17T07:05:27.269Z,23.25
2022-08-17T07:08:19.297Z,23.44
2022-08-17T07:10:57.724Z,23.50
2022-08-17T07:14:04.874Z,23.56
2022-08-17T07:16:41.212Z,23.06
2022-08-17T07:19:10.905Z,22.81
2022-08-17T07:22:09.104Z,23.00
2022-08-17T07:24:59.706Z,22.88
2022-08-17T07:27:32.950Z,23.31
2022-08-17T07:30:10.967Z,23.75
2022-08-17T07:33:09.171Z,24.19
2022-08-17T07:35:48.264Z,24.19
2022-08-17T07:38:24.857Z,25.63
2022-08-17T07:41:03.261Z,28.25
2022-08-17T07:43:39.635Z,29.81
2022-08-17T07:46:51.602Z,29.31
2022-08-17T07:49:36.088Z,30.19
2022-08-17T07:52:50.594Z,28.63
2022-08-17T07:55:35.471Z,27.38
2022-08-17T07:58:03.708Z,27.63
2022-08-17T08:00:33.010Z,27.75
2022-08-17T08:03:34.380Z,27.50
2022-08-17T08:06:03.650Z,26.13
2022-08-17T08:08:38.184Z,25.94
2022-08-17T08:11:12.323Z,25.88
2022-08-17T08:13:45.129Z,25.88
2022-08-17T08:16:24.555Z,25.88
2022-08-17T08:19:02.555Z,25.44
2022-08-17T08:21:56.480Z,25.38
2022-08-17T08:24:37.064Z,26.13
2022-08-17T08:27:55.363Z,26.19
2022-08-17T08:30:23.628Z,25.88
2022-08-17T08:33:41.327Z,25.69
2022-08-17T08:37:14.545Z,26.00
2022-08-17T08:39:47.497Z,26.19
2022-08-17T08:43:04.940Z,26.13
2022-08-17T08:46:09.789Z,25.94
2022-08-17T08:49:11.962Z,26.38
2022-08-17T08:51:52.497Z,26.38
2022-08-17T08:55:05.341Z,26.56
2022-08-17T08:57:40.975Z,26.56
2022-08-17T09:00:17.533Z,26.44
2022-08-17T09:03:52.688Z,26.75
2022-08-17T09:06:51.285Z,27.13
2022-08-17T09:10:27.079Z,27.50
2022-08-17T09:13:54.391Z,26.81
2022-08-17T09:16:58.197Z,27.25
2022-08-17T09:19:49.331Z,27.13
2022-08-17T09:22:36.120Z,26.88
2022-08-17T09:25:28.482Z,27.56
2022-08-17T09:28:08.474Z,27.69
2022-08-17T09:30:47.555Z,27.75
2022-08-17T09:33:26.188Z,27.50
2022-08-17T09:35:57.686Z,28.06
2022-08-17T09:38:49.168Z,28.00
2022-08-17T09:41:38.952Z,27.94
2022-08-17T09:44:23.724Z,27.88
2022-08-17T09:47:25.725Z,28.00
2022-08-17T09:53:03.253Z,28.19
2022-08-17T09:55:51.912Z,28.06
2022-08-17T09:58:29.464Z,27.75
2022-08-17T10:01:33.336Z,28.13
2022-08-17T10:04:29.638Z,28.38
2022-08-17T10:07:15.793Z,28.19
2022-08-17T10:10:04.513Z,28.38
2022-08-17T10:12:53.311Z,28.38
2022-08-17T10:16:12.310Z,28.44
2022-08-17T10:18:47.557Z,28.13
2022-08-17T10:21:36.451Z,28.19
2022-08-17T10:25:21.638Z,28.06
2022-08-17T10:27:58.097Z,28.56
2022-08-17T10:30:29.195Z,28.63
2022-08-17T10:33:03.572Z,28.13
2022-08-17T10:35:49.644Z,28.19
2022-08-17T10:38:25.605Z,28.25
2022-08-17T10:41:27.156Z,28.31
2022-08-17T10:44:37.031Z,28.56
2022-08-17T10:47:08.608Z,28.63
2022-08-17T10:49:39.548Z,28.50
2022-08-17T10:52:28.154Z,28.44
2022-08-17T10:54:58.088Z,28.31
2022-08-17T10:57:34.477Z,28.38
2022-08-17T11:00:37.830Z,28.44
2022-08-17T11:03:20.572Z,28.44
2022-08-17T11:06:38.934Z,28.38
2022-08-17T11:09:23.185Z,28.88
2022-08-17T11:12:15.005Z,28.44
2022-08-17T11:15:14.834Z,28.38
2022-08-17T11:18:42.837Z,28.50
2022-08-17T11:21:47.667Z,28.50
2022-08-17T11:24:30.596Z,28.50
2022-08-17T11:27:30.181Z,28.56
2022-08-17T11:30:13.390Z,28.44
2022-08-17T11:32:54.811Z,28.31
2022-08-17T11:35:22.448Z,28.38
2022-08-17T11:38:28.558Z,28.19
2022-08-17T11:41:10.820Z,28.38
2022-08-17T11:43:43.476Z,28.56
2022-08-17T11:47:00.854Z,28.50
2022-08-17T11:50:10.990Z,28.38
2022-08-17T11:52:48.910Z,28.50
2022-08-17T11:55:38.429Z,28.44
2022-08-17T11:58:16.349Z,28.50
2022-08-17T12:00:46.647Z,28.63
2022-08-17T12:03:26.266Z,28.50
2022-08-17T12:06:04.882Z,28.56
2022-08-17T12:08:34.724Z,28.50
2022-08-17T12:11:19.013Z,28.69
2022-08-17T12:14:07.882Z,28.56
2022-08-17T12:16:35.345Z,28.56
2022-08-17T12:19:05.291Z,28.56
2022-08-17T12:22:33.396Z,28.63
2022-08-17T12:25:20.313Z,28.50
2022-08-17T12:28:04.766Z,28.56
2022-08-17T12:30:34.781Z,28.44
2022-08-17T12:33:02.655Z,28.56
2022-08-17T12:35:39.072Z,28.56
2022-08-17T12:38:26.878Z,28.38
2022-08-17T12:40:59.839Z,28.50
2022-08-17T12:43:32.975Z,28.38
2022-08-17T12:46:15.143Z,28.44
2022-08-17T12:48:59.400Z,28.69
2022-08-17T12:51:29.219Z,28.50
2022-08-17T12:53:57.047Z,28.75
2022-08-17T12:56:24.410Z,28.63
2022-08-17T12:58:53.600Z,28.63
2022-08-17T13:01:23.454Z,28.63
2022-08-17T13:03:54.802Z,28.50
2022-08-17T13:06:35.772Z,28.75
2022-08-17T13:09:35.868Z,28.50
2022-08-17T13:12:08.529Z,28.44
2022-08-17T13:14:36.249Z,28.50
2022-08-17T13:17:09.907Z,28.69
2022-08-17T13:19:50.187Z,28.81
2022-08-17T13:22:23.541Z,28.88
2022-08-17T13:25:08.484Z,28.63
2022-08-17T13:27:35.951Z,28.56
2022-08-17T13:30:12.208Z,28.88
2022-08-17T13:32:48.691Z,28.81
2022-08-17T13:35:45.931Z,28.81
2022-08-17T13:38:45.812Z,28.69
2022-08-17T13:41:35.742Z,28.69
2022-08-17T13:44:23.370Z,28.81
2022-08-17T13:46:57.117Z,28.69
2022-08-17T13:49:24.741Z,28.81
2022-08-17T13:52:33.861Z,28.81
2022-08-17T13:55:06.925Z,28.94
2022-08-17T13:57:35.561Z,28.69
2022-08-17T14:00:30.658Z,28.75
2022-08-17T14:03:04.062Z,28.88
2022-08-17T14:05:33.801Z,29.00
2022-08-17T14:08:06.805Z,28.81
2022-08-17T14:10:36.503Z,28.81
2022-08-17T14:13:05.022Z,28.69
2022-08-17T14:15:55.792Z,28.75
2022-08-17T14:18:42.035Z,28.88
2022-08-17T14:21:08.530Z,28.81
2022-08-17T14:23:36.834Z,29.06
2022-08-17T14:26:05.635Z,28.94
2022-08-17T14:28:33.084Z,29.06
2022-08-17T14:31:03.688Z,29.00
2022-08-17T14:33:30.920Z,28.94
2022-08-17T14:35:58.298Z,29.19
2022-08-17T14:38:25.575Z,29.00
2022-08-17T14:40:53.516Z,29.25
2022-08-17T14:43:21.079Z,29.06
2022-08-17T14:45:48.338Z,28.94
2022-08-17T14:48:15.963Z,28.88
2022-08-17T14:50:44.316Z,28.94
2022-08-17T14:53:16.179Z,28.88
2022-08-17T14:55:47.206Z,28.69
2022-08-17T14:58:15.932Z,28.88
2022-08-17T15:00:43.751Z,28.94
2022-08-17T15:03:11.869Z,28.88
2022-08-17T15:05:40.143Z,28.94
2022-08-17T15:08:08.603Z,28.94
2022-08-17T15:10:37.053Z,29.06
2022-08-17T15:13:04.757Z,29.00
2022-08-17T15:15:32.095Z,29.13
2022-08-17T15:18:00.077Z,29.13
2022-08-17T15:20:30.371Z,29.06
2022-08-17T15:22:59.036Z,29.06
2022-08-17T15:25:32.382Z,29.00
2022-08-17T15:28:01.295Z,29.06
2022-08-17T15:30:30.015Z,29.13
2022-08-17T15:32:59.427Z,29.06
2022-08-17T15:35:32.726Z,29.19
2022-08-17T15:38:10.583Z,29.19
2022-08-17T15:40:44.055Z,29.06
2022-08-17T15:43:23.319Z,29.00
2022-08-17T15:46:01.969Z,29.06
2022-08-17T15:48:43.933Z,29.00
2022-08-17T15:51:28.251Z,28.94
2022-08-17T15:54:00.376Z,29.06
2022-08-17T15:56:32.178Z,28.88
2022-08-17T15:59:00.194Z,29.00
2022-08-17T16:03:01.824Z,29.06
2022-08-17T16:04:30.382Z,29.00
2022-08-17T16:06:59.758Z,28.94
2022-08-17T16:09:27.776Z,28.94
2022-08-17T16:11:56.140Z,28.88
2022-08-17T16:14:33.711Z,28.88
2022-08-17T16:17:04.662Z,28.88
2022-08-17T16:19:33.393Z,28.81
2022-08-17T16:22:01.077Z,28.69
2022-08-17T16:24:28.427Z,28.75
2022-08-17T16:26:55.901Z,28.81
2022-08-17T16:29:23.302Z,28.75
2022-08-17T16:31:51.433Z,28.63
2022-08-17T16:34:19.106Z,28.63
2022-08-17T16:36:53.581Z,28.56
2022-08-17T16:39:29.434Z,28.56
2022-08-17T16:41:57.559Z,28.50
2022-08-17T16:44:31.827Z,28.38
2022-08-17T16:47:01.370Z,28.31
2022-08-17T16:49:37.382Z,28.25
2022-08-17T16:52:10.697Z,28.31
2022-08-17T16:54:43.745Z,28.25
2022-08-17T16:57:13.268Z,28.25
2022-08-17T16:59:44.901Z,28.25
2022-08-17T17:02:17.302Z,28.25
2022-08-17T17:05:19.301Z,28.13
2022-08-17T17:08:08.962Z,28.00
2022-08-17T17:10:50.104Z,27.88
2022-08-17T17:13:26.776Z,27.88
2022-08-17T17:16:01.360Z,27.75
2022-08-17T17:18:42.729Z,27.69
2022-08-17T17:21:15.205Z,27.56
2022-08-17T17:23:59.770Z,27.56
2022-08-17T17:26:49.683Z,27.44
2022-08-17T17:29:48.817Z,27.31
2022-08-17T17:32:41.594Z,27.25
2022-08-17T17:35:17.567Z,27.06
2022-08-17T17:37:46.780Z,27.00
2022-08-17T17:40:24.584Z,26.88
2022-08-17T17:42:55.514Z,26.75
2022-08-17T17:45:36.110Z,26.56
2022-08-17T17:48:03.708Z,26.56
2022-08-17T17:50:43.942Z,26.56
2022-08-17T17:53:41.835Z,26.38
2022-08-17T17:56:43.743Z,26.25
2022-08-17T17:59:23.001Z,26.13
2022-08-17T18:01:59.950Z,26.00
2022-08-17T18:04:36.279Z,26.00
2022-08-17T18:07:23.903Z,25.88
2022-08-17T18:10:19.567Z,25.81
2022-08-17T18:13:22.025Z,25.69
2022-08-17T18:15:55.741Z,25.63
2022-08-17T18:18:38.801Z,25.56
2022-08-17T18:21:16.967Z,25.50
2022-08-17T18:24:07.627Z,25.50
2022-08-17T18:26:37.884Z,25.38
2022-08-17T18:29:22.593Z,25.31
2022-08-17T18:32:19.777Z,25.25
2022-08-17T18:34:51.976Z,25.13
2022-08-17T18:37:49.372Z,25.13
2022-08-17T18:40:19.814Z,25.06
2022-08-17T18:43:11.517Z,25.00
2022-08-17T18:45:51.335Z,24.88
2022-08-17T18:51:40.629Z,24.81
2022-08-17T18:54:25.469Z,24.81
2022-08-17T18:56:56.783Z,24.63
2022-08-17T18:59:45.384Z,24.38
2022-08-17T19:02:22.083Z,24.50
2022-08-17T19:05:13.653Z,24.50
2022-08-17T19:07:48.167Z,24.44
2022-08-17T19:10:46.354Z,24.44
2022-08-17T19:13:24.372Z,24.44
2022-08-17T19:16:15.002Z,24.38
2022-08-17T19:19:15.043Z,24.25
2022-08-17T19:22:13.713Z,24.25
2022-08-17T19:25:16.931Z,24.19
2022-08-17T19:28:01.798Z,24.13
2022-08-17T19:30:30.933Z,24.06
2022-08-17T19:32:58.517Z,23.75
2022-08-17T19:35:46.135Z,23.88
2022-08-17T19:38:34.938Z,23.69
2022-08-17T19:41:30.036Z,23.63
2022-08-17T19:44:01.511Z,23.75
2022-08-17T19:46:50.052Z,23.69
2022-08-17T19:49:52.127Z,23.50
2022-08-17T19:53:47.385Z,23.56
2022-08-17T19:56:25.389Z,23.50
2022-08-17T19:59:51.627Z,23.19
2022-08-17T20:02:26.503Z,23.25
2022-08-17T20:05:01.483Z,23.38
2022-08-17T20:08:00.996Z,23.19
2022-08-17T20:11:01.744Z,23.06
2022-08-17T20:13:50.535Z,23.19
2022-08-17T20:16:19.931Z,23.25
2022-08-17T20:19:01.825Z,23.19
2022-08-17T20:21:53.285Z,23.00
2022-08-17T20:24:35.865Z,23.00
2022-08-17T20:27:12.083Z,23.06
2022-08-17T20:30:00.706Z,23.06
2022-08-17T20:32:52.023Z,22.88
2022-08-17T20:35:33.305Z,22.81
2022-08-17T20:38:12.275Z,22.75
2022-08-17T20:41:04.079Z,22.69
2022-08-17T20:43:34.583Z,22.81
2022-08-17T20:46:38.410Z,22.69
2022-08-17T20:49:15.043Z,22.63
2022-08-17T20:52:09.922Z,22.63
2022-08-17T20:54:54.350Z,22.63
2022-08-17T20:57:36.751Z,22.63
2022-08-17T21:00:17.037Z,22.63
2022-08-17T21:02:52.349Z,22.13
2022-08-17T21:05:59.836Z,22.13
2022-08-17T21:08:36.464Z,22.25
2022-08-17T21:12:02.788Z,22.19
2022-08-17T21:14:34.424Z,22.31
2022-08-17T21:17:19.560Z,22.19
2022-08-17T21:20:12.222Z,22.19
2022-08-17T21:23:05.304Z,22.25
2022-08-17T21:25:51.614Z,22.25
2022-08-17T21:28:36.902Z,22.19
2022-08-17T21:31:41.037Z,22.06
2022-08-17T21:34:17.139Z,22.13
2022-08-17T21:36:46.253Z,22.13
2022-08-17T21:39:24.231Z,22.06
2022-08-17T21:42:00.740Z,22.13
2022-08-17T21:44:46.373Z,22.00
2022-08-17T21:47:24.688Z,21.75
2022-08-17T21:49:54.210Z,22.00
2022-08-17T21:52:24.939Z,22.06
2022-08-17T21:54:58.179Z,22.00
2022-08-17T21:57:27.843Z,21.75
2022-08-17T22:00:01.897Z,21.88
2022-08-17T22:02:35.653Z,21.88
2022-08-17T22:05:07.697Z,21.81
2022-08-17T22:07:51.028Z,21.81
2022-08-17T22:10:41.151Z,21.63
2022-08-17T22:13:24.338Z,21.38
2022-08-17T22:16:28.648Z,21.69
2022-08-17T22:18:58.128Z,21.56
2022-08-17T22:21:26.264Z,21.38
2022-08-17T22:24:21.718Z,21.44
2022-08-17T22:26:59.808Z,21.56
2022-08-17T22:29:58.630Z,21.44
2022-08-17T22:32:32.125Z,21.38
2022-08-17T22:35:27.115Z,21.38
2022-08-17T22:37:55.217Z,21.13
2022-08-17T22:40:32.905Z,21.19
2022-08-17T22:43:03.624Z,21.31
2022-08-17T22:45:31.396Z,21.25
2022-08-17T22:48:02.236Z,21.19
2022-08-17T22:50:33.214Z,21.31
2022-08-17T22:53:35.214Z,21.44
2022-08-17T22:56:20.733Z,21.38
2022-08-17T22:59:14.297Z,21.31
2022-08-17T23:01:45.363Z,21.25
2022-08-17T23:04:36.589Z,21.19
2022-08-17T23:07:04.114Z,21.25
2022-08-17T23:09:31.400Z,21.38
2022-08-17T23:11:59.565Z,21.44
2022-08-17T23:14:31.918Z,21.38
2022-08-17T23:16:59.858Z,21.31
2022-08-17T23:19:28.610Z,21.38
2022-08-17T23:21:57.654Z,21.25
2022-08-17T23:24:32.014Z,21.25
2022-08-17T23:26:59.405Z,21.25
2022-08-17T23:29:29.459Z,21.19
2022-08-17T23:32:01.333Z,21.25
2022-08-17T23:34:29.359Z,21.19
2022-08-17T23:36:56.682Z,21.19
2022-08-17T23:39:27.818Z,21.19
2022-08-17T23:41:59.417Z,21.00
2022-08-17T23:44:27.414Z,21.00
2022-08-17T23:46:55.203Z,20.88
2022-08-17T23:49:23.546Z,20.94
2022-08-17T23:51:52.495Z,20.81
2022-08-17T23:54:33.721Z,20.81
2022-08-17T23:57:02.784Z,20.81
2022-08-17T23:59:30.062Z,20.75
